createdAt,value
2019-02-08T00:02:00.096Z,3.70
2019-02-08T00:04:31.873Z,3.70
2019-02-08T00:07:03.521Z,3.70
2019-02-08T00:09:36.093Z,3.80
2019-02-08T00:12:09.615Z,3.80
2019-02-08T00:14:40.876Z,3.80
2019-02-08T00:17:11.729Z,3.90
2019-02-08T00:19:43.894Z,3.80
2019-02-08T00:22:15.956Z,3.90
2019-02-08T00:24:46.322Z,3.90
2019-02-08T00:27:20.708Z,3.80
2019-02-08T00:29:51.188Z,3.80
2019-02-08T00:32:21.672Z,3.80
2019-02-08T00:34:53.486Z,3.80
2019-02-08T00:37:24.222Z,3.90
2019-02-08T00:39:55.565Z,4.00
2019-02-08T00:42:26.765Z,4.00
2019-02-08T00:44:57.839Z,4.00
2019-02-08T00:47:29.636Z,4.10
2019-02-08T00:50:01.123Z,4.10
2019-02-08T00:52:33.323Z,4.10
2019-02-08T00:55:08.255Z,4.20
2019-02-08T00:57:40.766Z,4.20
2019-02-08T01:00:18.682Z,4.30
2019-02-08T01:02:52.928Z,4.30
2019-02-08T01:05:24.320Z,4.20
2019-02-08T01:07:55.848Z,4.10
2019-02-08T01:10:28.397Z,4.10
2019-02-08T01:13:02.436Z,4.10
2019-02-08T01:15:34.895Z,4.10
2019-02-08T01:18:07.436Z,4.10
2019-02-08T01:20:38.751Z,4.10
2019-02-08T01:23:09.079Z,4.10
2019-02-08T01:25:39.490Z,4.10
2019-02-08T01:28:09.801Z,4.10
2019-02-08T01:30:40.812Z,4.20
2019-02-08T01:33:15.057Z,4.20
2019-02-08T01:35:46.112Z,4.20
2019-02-08T01:38:18.979Z,4.20
2019-02-08T01:40:49.091Z,4.20
2019-02-08T01:43:19.044Z,4.20
2019-02-08T01:45:50.148Z,4.10
2019-02-08T01:48:21.444Z,4.20
2019-02-08T01:50:52.153Z,4.20
2019-02-08T01:53:26.788Z,4.20
2019-02-08T01:55:59.496Z,4.30
2019-02-08T01:58:30.776Z,4.30
2019-02-08T02:01:03.414Z,4.20
2019-02-08T02:03:38.460Z,4.20
2019-02-08T02:06:10.517Z,4.20
2019-02-08T02:08:41.678Z,4.20
2019-02-08T02:11:17.631Z,4.20
2019-02-08T02:13:54.516Z,4.10
2019-02-08T02:16:25.764Z,4.10
2019-02-08T02:19:03.076Z,4.10
2019-02-08T02:21:37.619Z,4.00
2019-02-08T02:24:08.816Z,4.00
2019-02-08T02:26:39.442Z,3.90
2019-02-08T02:29:09.435Z,3.90
2019-02-08T02:31:39.837Z,3.90
2019-02-08T02:34:09.736Z,3.90
2019-02-08T02:36:39.780Z,4.00
2019-02-08T02:39:14.560Z,4.00
2019-02-08T02:41:44.410Z,4.00
2019-02-08T02:44:16.134Z,4.10
2019-02-08T02:46:47.226Z,4.00
2019-02-08T02:49:17.596Z,4.00
2019-02-08T02:51:47.964Z,4.10
2019-02-08T02:54:19.618Z,4.10
2019-02-08T02:56:49.840Z,4.00
2019-02-08T02:59:21.308Z,4.00
2019-02-08T03:01:54.513Z,4.00
2019-02-08T03:04:26.767Z,4.00
2019-02-08T03:06:58.604Z,4.00
2019-02-08T03:09:30.754Z,4.00
2019-02-08T03:12:01.863Z,4.00
2019-02-08T03:14:34.486Z,4.00
2019-02-08T03:17:10.836Z,4.00
2019-02-08T03:19:42.461Z,4.00
2019-02-08T03:22:13.625Z,4.10
2019-02-08T03:24:43.588Z,4.10
2019-02-08T03:27:18.246Z,4.10
2019-02-08T03:29:51.306Z,4.20
2019-02-08T03:32:24.317Z,4.20
2019-02-08T03:34:59.798Z,4.30
2019-02-08T03:37:31.002Z,4.30
2019-02-08T03:40:05.264Z,4.40
2019-02-08T03:42:37.142Z,4.40
2019-02-08T03:45:10.831Z,4.40
2019-02-08T03:47:43.159Z,4.50
2019-02-08T03:50:18.317Z,4.50
2019-02-08T03:52:50.671Z,4.50
2019-02-08T03:55:24.518Z,4.50
2019-02-08T03:57:58.155Z,4.60
2019-02-08T04:00:39.440Z,4.60
2019-02-08T04:03:17.657Z,4.70
2019-02-08T04:05:58.092Z,4.70
2019-02-08T04:08:42.811Z,4.70
2019-02-08T04:11:26.586Z,4.70
2019-02-08T04:13:57.354Z,4.80
2019-02-08T04:16:43.359Z,4.90
2019-02-08T04:19:15.549Z,4.90
2019-02-08T04:22:00.529Z,4.80
2019-02-08T04:24:30.431Z,4.70
2019-02-08T04:27:00.466Z,4.80
2019-02-08T04:29:30.294Z,4.90
2019-02-08T04:31:59.827Z,4.90
2019-02-08T04:34:29.139Z,4.90
2019-02-08T04:36:58.553Z,4.90
2019-02-08T04:39:27.868Z,4.90
2019-02-08T04:41:57.295Z,4.80
2019-02-08T04:48:06.381Z,4.70
2019-02-08T04:50:40.505Z,4.50
2019-02-08T04:53:12.356Z,4.40
2019-02-08T04:55:45.897Z,4.30
2019-02-08T04:58:18.345Z,4.30
2019-02-08T05:00:51.057Z,4.20
2019-02-08T05:03:22.095Z,4.20
2019-02-08T05:05:55.310Z,4.20
2019-02-08T05:08:26.907Z,4.20
2019-02-08T05:11:01.520Z,4.20
2019-02-08T05:13:36.648Z,4.20
2019-02-08T05:16:15.230Z,4.30
2019-02-08T05:18:48.991Z,4.30
2019-02-08T05:21:21.187Z,4.20
2019-02-08T05:23:57.722Z,4.20
2019-02-08T05:26:29.648Z,4.20
2019-02-08T05:29:01.106Z,4.10
2019-02-08T05:31:30.803Z,4.00
2019-02-08T05:34:00.249Z,4.00
2019-02-08T05:36:30.247Z,3.90
2019-02-08T05:39:00.386Z,3.90
2019-02-08T05:41:30.556Z,3.90
2019-02-08T05:44:00.895Z,3.90
2019-02-08T05:46:31.096Z,3.90
2019-02-08T05:49:01.411Z,3.90
2019-02-08T05:51:32.256Z,3.90
2019-02-08T05:54:04.299Z,3.90
2019-02-08T05:56:36.252Z,3.90
2019-02-08T05:59:06.963Z,3.90
2019-02-08T06:01:38.888Z,3.90
2019-02-08T06:04:09.771Z,3.90
2019-02-08T06:06:41.178Z,3.90
2019-02-08T06:09:13.664Z,3.90
2019-02-08T06:11:43.886Z,3.90
2019-02-08T06:14:18.065Z,4.00
2019-02-08T06:16:51.553Z,4.00
2019-02-08T06:19:26.223Z,3.90
2019-02-08T06:22:03.174Z,4.00
2019-02-08T06:24:35.904Z,4.00
2019-02-08T06:27:10.962Z,4.00
2019-02-08T06:29:41.902Z,4.00
2019-02-08T06:32:17.642Z,4.00
2019-02-08T06:34:50.492Z,4.00
2019-02-08T06:37:28.991Z,4.00
2019-02-08T06:40:04.148Z,4.00
2019-02-08T06:42:36.462Z,4.00
2019-02-08T06:45:10.030Z,4.00
2019-02-08T06:47:42.518Z,4.10
2019-02-08T06:50:14.921Z,4.00
2019-02-08T06:52:46.509Z,4.00
2019-02-08T06:55:19.843Z,4.10
2019-02-08T06:58:14.762Z,4.00
2019-02-08T07:01:28.239Z,4.10
2019-02-08T07:04:16.371Z,4.10
2019-02-08T07:07:09.049Z,4.00
2019-02-08T07:10:04.606Z,4.00
2019-02-08T07:13:09.339Z,4.10
2019-02-08T07:15:57.312Z,4.10
2019-02-08T07:18:51.788Z,4.20
2019-02-08T07:21:32.044Z,4.20
2019-02-08T07:24:27.137Z,4.20
2019-02-08T07:27:13.670Z,4.20
2019-02-08T07:29:55.431Z,4.20
2019-02-08T07:32:36.111Z,4.30
2019-02-08T07:35:32.362Z,4.30
2019-02-08T07:38:43.842Z,4.40
2019-02-08T07:44:21.764Z,4.40
2019-02-08T07:47:19.522Z,4.40
2019-02-08T07:50:15.359Z,4.40
2019-02-08T07:53:11.079Z,4.50
2019-02-08T07:56:06.379Z,4.50
2019-02-08T07:59:19.073Z,4.60
2019-02-08T08:02:14.418Z,4.70
2019-02-08T08:05:08.100Z,4.70
2019-02-08T08:08:03.714Z,4.70
2019-02-08T08:10:58.213Z,4.70
2019-02-08T08:13:57.558Z,4.70
2019-02-08T08:16:47.047Z,4.80
2019-02-08T08:19:36.550Z,4.80
2019-02-08T08:22:20.521Z,4.80
2019-02-08T08:25:08.874Z,4.80
2019-02-08T08:28:03.028Z,4.80
2019-02-08T08:30:55.302Z,4.80
2019-02-08T08:33:35.409Z,4.70
2019-02-08T08:37:13.389Z,4.80
2019-02-08T08:40:23.979Z,4.80
2019-02-08T08:43:24.964Z,4.90
2019-02-08T08:46:40.835Z,5.00
2019-02-08T08:49:41.411Z,5.10
2019-02-08T08:52:56.956Z,5.10
2019-02-08T08:55:55.136Z,5.20
2019-02-08T08:59:01.703Z,5.30
2019-02-08T09:02:18.296Z,5.40
2019-02-08T09:05:31.477Z,5.40
2019-02-08T09:08:40.473Z,5.50
2019-02-08T09:12:08.263Z,5.60
2019-02-08T09:15:29.038Z,5.60
2019-02-08T09:18:53.846Z,5.80
2019-02-08T09:22:02.461Z,5.90
2019-02-08T09:25:09.763Z,6.00
2019-02-08T09:28:23.212Z,6.10
2019-02-08T09:31:44.099Z,6.10
2019-02-08T09:34:55.295Z,6.30
2019-02-08T09:38:18.343Z,6.20
2019-02-08T09:41:45.118Z,6.20
2019-02-08T09:45:10.011Z,6.20
2019-02-08T09:48:15.524Z,6.30
2019-02-08T09:51:11.290Z,6.40
2019-02-08T09:54:10.516Z,6.60
2019-02-08T09:57:30.434Z,6.70
2019-02-08T10:00:31.902Z,6.70
2019-02-08T10:07:35.228Z,6.80
2019-02-08T10:15:01.802Z,6.90
2019-02-08T10:18:29.545Z,7.00
2019-02-08T10:21:40.499Z,7.10
2019-02-08T10:25:01.259Z,7.10
2019-02-08T10:28:10.858Z,7.20
2019-02-08T10:31:19.433Z,7.30
2019-02-08T10:34:29.609Z,7.50
2019-02-08T10:38:06.953Z,7.60
2019-02-08T10:41:13.148Z,7.60
2019-02-08T10:44:25.101Z,7.60
2019-02-08T10:47:31.603Z,7.60
2019-02-08T10:50:54.137Z,7.60
2019-02-08T10:54:12.186Z,7.60
2019-02-08T10:57:24.408Z,7.60
2019-02-08T11:00:33.466Z,7.60
2019-02-08T11:03:39.700Z,7.80
2019-02-08T11:06:49.358Z,7.90
2019-02-08T11:09:54.177Z,8.10
2019-02-08T11:12:55.657Z,8.10
2019-02-08T11:16:09.074Z,8.20
2019-02-08T11:19:13.966Z,8.10
2019-02-08T11:21:43.365Z,8.00
2019-02-08T11:24:14.045Z,7.80
2019-02-08T11:26:43.836Z,7.80
2019-02-08T11:29:13.365Z,7.90
2019-02-08T11:31:43.772Z,7.90
2019-02-08T11:34:13.715Z,7.90
2019-02-08T11:36:43.815Z,8.00
2019-02-08T11:39:16.706Z,8.00
2019-02-08T11:41:47.352Z,7.90
2019-02-08T11:44:17.422Z,8.00
2019-02-08T11:46:46.848Z,8.10
2019-02-08T11:49:16.334Z,8.20
2019-02-08T11:51:45.630Z,8.20
2019-02-08T11:54:15.031Z,8.20
2019-02-08T11:56:44.354Z,8.10
2019-02-08T11:59:14.526Z,8.10
2019-02-08T12:01:53.167Z,8.10
2019-02-08T12:04:22.515Z,8.10
2019-02-08T12:06:52.177Z,8.10
2019-02-08T12:09:21.569Z,8.10
2019-02-08T12:11:50.925Z,8.10
2019-02-08T12:14:20.225Z,8.20
2019-02-08T12:16:49.774Z,8.30
2019-02-08T12:19:19.090Z,8.30
2019-02-08T12:21:48.386Z,8.30
2019-02-08T12:24:17.672Z,8.40
2019-02-08T12:26:46.923Z,8.50
2019-02-08T12:29:16.199Z,8.50
2019-02-08T12:31:45.589Z,8.60
2019-02-08T12:34:14.859Z,8.60
2019-02-08T12:36:44.129Z,8.50
2019-02-08T12:39:13.632Z,8.60
2019-02-08T12:41:43.099Z,8.60
2019-02-08T12:44:13.167Z,8.60
2019-02-08T12:46:42.439Z,8.60
2019-02-08T12:49:11.700Z,8.60
2019-02-08T12:51:40.999Z,8.60
2019-02-08T12:54:10.262Z,8.60
2019-02-08T12:56:45.409Z,8.60
2019-02-08T12:59:10.597Z,8.70
2019-02-08T13:01:39.866Z,8.70
2019-02-08T13:04:09.179Z,8.70
2019-02-08T13:06:38.494Z,8.70
2019-02-08T13:09:12.002Z,8.70
2019-02-08T13:11:41.487Z,8.70
2019-02-08T13:14:10.860Z,8.60
2019-02-08T13:16:40.126Z,8.50
2019-02-08T13:19:09.492Z,8.60
2019-02-08T13:21:38.757Z,8.70
2019-02-08T13:24:08.256Z,8.70
2019-02-08T13:26:37.638Z,8.80
2019-02-08T13:29:07.008Z,8.80
2019-02-08T13:31:37.591Z,8.80
2019-02-08T13:34:07.051Z,8.90
2019-02-08T13:36:36.462Z,8.90
2019-02-08T13:39:08.739Z,9.00
2019-02-08T13:41:38.035Z,9.00
2019-02-08T13:44:07.331Z,8.90
2019-02-08T13:46:36.696Z,8.90
2019-02-08T13:49:05.938Z,9.00
2019-02-08T13:51:35.308Z,8.90
2019-02-08T13:54:05.154Z,8.90
2019-02-08T13:56:34.469Z,8.90
2019-02-08T13:59:04.259Z,8.80
2019-02-08T14:01:33.600Z,8.90
2019-02-08T14:04:02.890Z,9.00
2019-02-08T14:06:32.243Z,8.80
2019-02-08T14:09:01.601Z,8.80
2019-02-08T14:11:30.967Z,8.70
2019-02-08T14:14:00.472Z,8.80
2019-02-08T14:16:29.811Z,8.80
2019-02-08T14:18:59.162Z,8.80
2019-02-08T14:21:28.471Z,8.80
2019-02-08T14:23:57.800Z,8.70
2019-02-08T14:26:27.066Z,8.70
2019-02-08T14:28:56.444Z,8.60
2019-02-08T14:31:25.823Z,8.60
2019-02-08T14:33:55.167Z,8.60
2019-02-08T14:36:24.472Z,8.60
2019-02-08T14:38:53.883Z,8.50
2019-02-08T14:41:23.198Z,8.50
2019-02-08T14:43:52.532Z,8.60
2019-02-08T14:46:21.902Z,8.50
2019-02-08T14:48:51.297Z,8.50
2019-02-08T14:51:20.788Z,8.50
2019-02-08T14:53:50.106Z,8.50
2019-02-08T14:56:19.414Z,8.50
2019-02-08T14:58:48.753Z,8.50
2019-02-08T15:01:18.058Z,8.40
2019-02-08T15:03:47.376Z,8.40
2019-02-08T15:06:16.720Z,8.40
2019-02-08T15:08:46.035Z,8.40
2019-02-08T15:11:15.327Z,8.50
2019-02-08T15:13:44.722Z,8.50
2019-02-08T15:16:13.999Z,8.60
2019-02-08T15:18:43.315Z,8.70
2019-02-08T15:21:12.666Z,8.60
2019-02-08T15:23:41.981Z,8.60
2019-02-08T15:26:11.275Z,8.60
2019-02-08T15:28:41.497Z,8.50
2019-02-08T15:31:10.769Z,8.40
2019-02-08T15:33:40.337Z,8.50
2019-02-08T15:36:09.788Z,8.50
2019-02-08T15:38:39.211Z,8.40
2019-02-08T15:41:08.654Z,8.40
2019-02-08T15:43:38.083Z,8.40
2019-02-08T15:46:07.927Z,8.20
2019-02-08T15:48:37.321Z,8.20
2019-02-08T15:51:06.783Z,8.10
2019-02-08T15:53:36.119Z,8.00
2019-02-08T15:56:16.511Z,8.00
2019-02-08T15:58:45.808Z,8.10
2019-02-08T16:01:15.362Z,8.00
2019-02-08T16:03:44.751Z,8.10
2019-02-08T16:06:14.054Z,8.00
2019-02-08T16:08:43.388Z,8.00
2019-02-08T16:11:12.710Z,7.90
2019-02-08T16:13:42.002Z,8.00
2019-02-08T16:16:12.113Z,8.00
2019-02-08T16:18:41.443Z,8.00
2019-02-08T16:21:11.066Z,7.90
2019-02-08T16:23:40.519Z,7.90
2019-02-08T16:26:10.124Z,7.60
2019-02-08T16:28:39.691Z,7.60
2019-02-08T16:31:09.270Z,7.60
2019-02-08T16:33:38.728Z,7.60
2019-02-08T16:36:08.344Z,7.60
2019-02-08T16:38:37.793Z,7.60
2019-02-08T16:41:09.381Z,7.60
2019-02-08T16:43:38.869Z,7.60
2019-02-08T16:46:09.018Z,7.60
2019-02-08T16:48:38.506Z,7.50
2019-02-08T16:51:08.092Z,7.50
2019-02-08T16:53:37.649Z,7.40
2019-02-08T16:56:07.594Z,7.30
2019-02-08T16:58:37.027Z,7.10
2019-02-08T17:01:06.991Z,7.10
2019-02-08T17:03:36.628Z,7.00
2019-02-08T17:06:06.613Z,7.00
2019-02-08T17:08:36.172Z,6.90
2019-02-08T17:11:05.803Z,6.90
2019-02-08T17:13:35.489Z,6.90
2019-02-08T17:16:06.233Z,6.80
2019-02-08T17:18:35.814Z,6.70
2019-02-08T17:21:05.542Z,6.70
2019-02-08T17:23:35.011Z,6.70
2019-02-08T17:26:04.649Z,6.60
2019-02-08T17:28:34.725Z,6.60
2019-02-08T17:31:04.454Z,6.50
2019-02-08T17:33:33.987Z,6.50
2019-02-08T17:36:03.669Z,6.50
2019-02-08T17:38:38.717Z,6.50
2019-02-08T17:41:10.786Z,6.40
2019-02-08T17:43:49.025Z,6.40
2019-02-08T17:46:20.143Z,6.30
2019-02-08T17:48:49.984Z,6.30
2019-02-08T17:51:23.409Z,6.30
2019-02-08T17:54:25.721Z,6.30
2019-02-08T17:57:03.840Z,6.20
2019-02-08T17:59:34.533Z,6.20
2019-02-08T18:02:09.297Z,6.10
2019-02-08T18:04:39.989Z,6.10
2019-02-08T18:07:11.141Z,6.00
2019-02-08T18:09:47.566Z,6.00
2019-02-08T18:12:19.291Z,5.90
2019-02-08T18:14:51.485Z,5.90
2019-02-08T18:17:26.813Z,6.00
2019-02-08T18:19:56.575Z,5.90
2019-02-08T18:22:28.681Z,5.90
2019-02-08T18:25:01.942Z,5.80
2019-02-08T18:27:34.298Z,5.80
2019-02-08T18:30:07.260Z,5.80
2019-02-08T18:32:43.250Z,5.80
2019-02-08T18:35:15.922Z,5.80
2019-02-08T18:37:46.077Z,5.70
2019-02-08T18:40:20.704Z,5.70
2019-02-08T18:42:54.269Z,5.70
2019-02-08T18:45:29.471Z,5.70
2019-02-08T18:48:00.962Z,5.70
2019-02-08T18:50:33.504Z,5.60
2019-02-08T18:53:06.251Z,5.70
2019-02-08T18:55:55.379Z,5.60
2019-02-08T18:58:30.321Z,5.70
2019-02-08T19:01:01.307Z,5.60
2019-02-08T19:03:37.209Z,5.60
2019-02-08T19:06:07.055Z,5.60
2019-02-08T19:08:36.545Z,5.70
2019-02-08T19:11:06.224Z,5.80
2019-02-08T19:13:42.398Z,5.80
2019-02-08T19:16:13.334Z,5.70
2019-02-08T19:18:44.647Z,5.70
2019-02-08T19:21:33.978Z,5.70
2019-02-08T19:24:26.751Z,5.60
2019-02-08T19:26:59.222Z,5.60
2019-02-08T19:29:32.527Z,5.50
2019-02-08T19:32:10.298Z,5.50
2019-02-08T19:34:43.134Z,5.40
2019-02-08T19:37:21.984Z,5.50
2019-02-08T19:39:59.072Z,5.40
2019-02-08T19:42:31.122Z,5.40
2019-02-08T19:45:44.083Z,5.40
2019-02-08T19:48:21.663Z,5.40
2019-02-08T19:50:56.426Z,5.40
2019-02-08T19:53:25.876Z,5.50
2019-02-08T19:55:55.970Z,5.40
2019-02-08T19:58:48.416Z,5.50
2019-02-08T20:01:18.315Z,5.40
2019-02-08T20:03:55.636Z,5.40
2019-02-08T20:06:26.328Z,5.30
2019-02-08T20:08:55.993Z,5.30
2019-02-08T20:11:31.708Z,5.20
2019-02-08T20:14:03.016Z,5.20
2019-02-08T20:16:32.786Z,5.20
2019-02-08T20:19:05.180Z,5.20
2019-02-08T20:21:35.054Z,5.20
2019-02-08T20:24:22.800Z,5.30
2019-02-08T20:26:52.207Z,5.30
2019-02-08T20:29:21.560Z,5.50
2019-02-08T20:31:50.972Z,5.50
2019-02-08T20:34:22.613Z,5.40
2019-02-08T20:36:58.079Z,5.40
2019-02-08T20:39:38.313Z,5.20
2019-02-08T20:42:08.619Z,5.30
2019-02-08T20:44:39.349Z,5.30
2019-02-08T20:47:09.809Z,5.30
2019-02-08T20:49:40.035Z,5.30
2019-02-08T20:52:10.393Z,5.20
2019-02-08T20:54:48.990Z,5.20
2019-02-08T20:57:19.776Z,5.20
2019-02-08T20:59:50.738Z,5.20
2019-02-08T21:02:21.760Z,5.10
2019-02-08T21:04:54.180Z,5.10
2019-02-08T21:07:29.950Z,5.10
2019-02-08T21:10:02.287Z,5.10
2019-02-08T21:13:00.879Z,5.10
2019-02-08T21:15:31.277Z,5.10
2019-02-08T21:18:00.857Z,5.00
2019-02-08T21:20:31.790Z,5.20
2019-02-08T21:23:01.422Z,5.10
2019-02-08T21:25:31.772Z,5.10
2019-02-08T21:28:01.540Z,5.10
2019-02-08T21:30:30.932Z,5.20
2019-02-08T21:33:00.562Z,5.20
2019-02-08T21:35:32.221Z,5.10
2019-02-08T21:38:02.904Z,5.10
2019-02-08T21:41:14.000Z,5.10
2019-02-08T21:44:54.234Z,5.00
2019-02-08T21:47:39.509Z,4.90
2019-02-08T21:50:16.594Z,4.80
2019-02-08T21:56:55.722Z,4.80
2019-02-08T22:06:58.545Z,4.90
2019-02-08T22:09:34.232Z,4.80
2019-02-08T22:12:16.675Z,4.80
2019-02-08T22:18:52.803Z,4.90
2019-02-08T22:21:24.081Z,4.90
2019-02-08T22:27:04.635Z,4.90
2019-02-08T22:30:06.639Z,4.90
2019-02-08T22:37:15.610Z,4.70
2019-02-08T22:39:49.141Z,4.60
2019-02-08T22:42:19.825Z,4.70
2019-02-08T22:44:49.850Z,4.60
2019-02-08T22:48:01.698Z,4.70
2019-02-08T22:51:10.730Z,4.60
2019-02-08T22:54:28.181Z,4.50
2019-02-08T22:56:58.753Z,4.50
2019-02-08T22:59:30.603Z,4.40
2019-02-08T23:03:11.355Z,4.50
2019-02-08T23:05:58.627Z,4.40
2019-02-08T23:08:39.607Z,4.40
2019-02-08T23:12:52.620Z,4.30
2019-02-08T23:15:22.067Z,4.40
2019-02-08T23:18:56.893Z,4.40
2019-02-08T23:21:30.131Z,4.40
2019-02-08T23:24:04.724Z,4.40
2019-02-08T23:26:45.501Z,4.30
2019-02-08T23:29:30.173Z,4.40
2019-02-08T23:32:19.216Z,4.40
2019-02-08T23:34:58.014Z,4.40
2019-02-08T23:37:58.987Z,4.40
2019-02-08T23:40:43.799Z,4.40
2019-02-08T23:43:31.614Z,4.40
2019-02-08T23:46:06.780Z,4.30
2019-02-08T23:48:40.999Z,4.30
2019-02-08T23:51:20.996Z,4.20
2019-02-08T23:53:56.193Z,4.10
2019-02-08T23:56:30.910Z,4.20
2019-02-08T23:59:04.352Z,4.20
